Kaiyang, China
Current Conditions -  °F | °C
As of 5:00 PM on Wednesday 26 Nov 2014 (Local Time) from ZUGY Reporting Station
Broken Clouds Broken Clouds  
Wind Chill: 63°   Ceiling: 3300
Heat Index: 63°   Visibility: 6mi
Dew Point: 54°   Wind: 9mph
Humidity: 72%   Direction: 180°S
Pressure: 29.8"   Gusts: NA
Location:  27.07°N, 106.97°E
Report Text: ZUGY 260900Z 18004MPS 9999 BKN033 17/12 Q1009 NOSIG
Loading
Personal Weather Stations






























Interactive Weather Map New forecast layout! Learn more

10-Day Weather Forecast

Advertisements
Track Severe Weather on mobile